Time;durP1;ratioP1;P1;durP2;ratioP2;P2;SDS_P1;SDS_P2;PMS_P1;PMS_P2;Temp;Humidity;BMP_temperature;BMP_pressure;BME280_temperature;BME280_humidity;BME280_pressure;Samples;Min_cycle;Max_cycle;Signal;HPM_P1;HPM_P2
2022/06/24 00:02:08;;;;;;;9.45;5.85;;;;;;;;;;5085663;28;20087;-66
2022/06/24 00:04:35;;;;;;;9.85;5.78;;;;;;;;;;5086661;28;20044;-66
2022/06/24 00:07:01;;;;;;;10.00;7.50;;;;;;;;;;5095581;28;20047;-67
2022/06/24 00:09:29;;;;;;;9.90;6.97;;;;;;;;;;5089303;28;20053;-66
2022/06/24 00:12:06;;;;;;;9.23;7.15;;;;;;;;;;5079102;28;20541;-66
2022/06/24 00:14:32;;;;;;;9.60;7.82;;;;;;;;;;5087366;28;20047;-67
2022/06/24 00:17:03;;;;;;;10.55;7.32;;;;;;;;;;5088141;28;20200;-66
2022/06/24 00:19:30;;;;;;;8.20;6.30;;;;;;;;;;5088811;28;20063;-66
2022/06/24 00:21:57;;;;;;;10.52;8.15;;;;;;;;;;5083912;28;20619;-65
2022/06/24 00:24:24;;;;;;;11.07;7.63;;;;;;;;;;5091137;28;20040;-65
2022/06/24 00:26:50;;;;;;;9.77;7.10;;;;;;;;;;5089362;28;20039;-66
2022/06/24 00:29:19;;;;;;;12.32;7.22;;;;;;;;;;5087310;28;20047;-65
2022/06/24 00:32:05;;;;;;;9.95;7.07;;;;;;;;;;5080429;28;20045;-65
2022/06/24 00:34:32;;;;;;;11.68;8.07;;;;;;;;;;5089519;28;20441;-66
2022/06/24 00:36:58;;;;;;;9.18;6.55;;;;;;;;;;5085887;28;20040;-65
2022/06/24 00:39:35;;;;;;;13.35;8.18;;;;;;;;;;5094684;28;20454;-66
2022/06/24 00:42:02;;;;;;;10.52;8.25;;;;;;;;;;5089099;28;20036;-66
2022/06/24 00:44:32;;;;;;;9.45;8.18;;;;;;;;;;5090387;28;20075;-66
2022/06/24 00:46:59;;;;;;;11.18;7.40;;;;;;;;;;5088688;28;20076;-66
2022/06/24 00:49:27;;;;;;;11.18;8.48;;;;;;;;;;5094728;28;20118;-66
2022/06/24 00:51:54;;;;;;;9.93;7.30;;;;;;;;;;5091484;28;20577;-65
2022/06/24 00:54:23;;;;;;;8.25;7.35;;;;;;;;;;5091817;28;20039;-65
2022/06/24 00:56:54;;;;;;;11.32;8.35;;;;;;;;;;5074442;28;20039;-66
2022/06/24 00:59:20;;;;;;;10.32;6.82;;;;;;;;;;5088069;28;20486;-65
2022/06/24 01:01:49;;;;;;;10.43;7.65;;;;;;;;;;5084589;28;20490;-65
2022/06/24 01:04:15;;;;;;;13.82;8.02;;;;;;;;;;5087197;28;20032;-66
2022/06/24 01:06:43;;;;;;;7.90;6.47;;;;;;;;;;5090465;28;20039;-65
2022/06/24 01:09:09;;;;;;;10.82;6.43;;;;;;;;;;5083544;28;20076;-66
2022/06/24 01:11:36;;;;;;;6.50;5.32;;;;;;;;;;5091781;28;20379;-65
2022/06/24 01:14:03;;;;;;;8.88;5.43;;;;;;;;;;5087788;28;20092;-66
2022/06/24 01:16:29;;;;;;;7.95;5.53;;;;;;;;;;5095878;28;20443;-65
2022/06/24 01:18:56;;;;;;;7.38;4.88;;;;;;;;;;5088379;28;20421;-65
2022/06/24 01:21:34;;;;;;;7.65;4.88;;;;;;;;;;5084241;28;20045;-65
2022/06/24 01:24:04;;;;;;;9.38;5.47;;;;;;;;;;5085341;28;20036;-66
2022/06/24 01:26:30;;;;;;;8.00;4.97;;;;;;;;;;5082729;28;20028;-66
2022/06/24 01:28:56;;;;;;;6.60;4.82;;;;;;;;;;5077872;28;20089;-66
2022/06/24 01:31:22;;;;;;;6.30;4.50;;;;;;;;;;5095217;28;20116;-66
2022/06/24 01:33:49;;;;;;;5.20;4.38;;;;;;;;;;5090022;28;20089;-66
2022/06/24 01:36:15;;;;;;;4.68;3.97;;;;;;;;;;5081310;28;20044;-66
2022/06/24 01:38:41;;;;;;;10.02;4.53;;;;;;;;;;5089276;28;20044;-66
2022/06/24 01:41:08;;;;;;;4.85;4.20;;;;;;;;;;5086961;28;20033;-66
2022/06/24 01:43:35;;;;;;;6.10;4.45;;;;;;;;;;5092653;28;20085;-66
2022/06/24 01:46:01;;;;;;;5.80;4.30;;;;;;;;;;5100959;28;20126;-66
2022/06/24 01:48:27;;;;;;;4.95;3.92;;;;;;;;;;5084378;28;20039;-66
2022/06/24 01:50:53;;;;;;;6.43;5.25;;;;;;;;;;5084193;28;20044;-66
2022/06/24 01:53:20;;;;;;;4.40;3.58;;;;;;;;;;5087926;28;20300;-66
2022/06/24 01:55:46;;;;;;;5.82;4.55;;;;;;;;;;5088904;28;20074;-66
2022/06/24 01:58:12;;;;;;;5.40;4.15;;;;;;;;;;5097441;28;20070;-66
2022/06/24 02:00:38;;;;;;;7.35;4.13;;;;;;;;;;5073410;28;20489;-66
2022/06/24 02:03:05;;;;;;;9.70;4.65;;;;;;;;;;5091887;28;20040;-66
2022/06/24 02:05:31;;;;;;;5.97;4.55;;;;;;;;;;5087262;28;20063;-66
2022/06/24 02:07:57;;;;;;;10.18;4.72;;;;;;;;;;5099590;28;20043;-67
2022/06/24 02:13:27;;;;;;;5.75;4.15;;;;;;;;;;5085863;28;20101;-66
2022/06/24 02:15:54;;;;;;;5.20;4.22;;;;;;;;;;5085263;28;20335;-66
2022/06/24 02:18:20;;;;;;;9.30;4.22;;;;;;;;;;5083623;28;20072;-67
2022/06/24 02:20:46;;;;;;;7.07;4.15;;;;;;;;;;5086336;28;20028;-66
2022/06/24 02:23:12;;;;;;;5.35;3.35;;;;;;;;;;5091967;28;20428;-67
2022/06/24 02:25:38;;;;;;;5.30;3.58;;;;;;;;;;5098033;28;20036;-66
2022/06/24 02:28:05;;;;;;;6.90;4.10;;;;;;;;;;5093596;28;20044;-66
2022/06/24 02:30:31;;;;;;;6.38;3.90;;;;;;;;;;5077341;28;20036;-66
2022/06/24 02:32:57;;;;;;;5.78;4.63;;;;;;;;;;5078615;28;20046;-66
2022/06/24 02:35:23;;;;;;;8.27;4.45;;;;;;;;;;5098707;28;20043;-67
2022/06/24 02:37:49;;;;;;;6.90;4.70;;;;;;;;;;5083180;28;20490;-66
2022/06/24 02:43:00;;;;;;;6.53;4.47;;;;;;;;;;5087089;28;20051;-67
2022/06/24 02:45:27;;;;;;;6.57;4.28;;;;;;;;;;5099738;28;20499;-66
2022/06/24 02:47:53;;;;;;;9.80;6.03;;;;;;;;;;5087757;28;20306;-66
2022/06/24 02:50:19;;;;;;;6.60;5.15;;;;;;;;;;5100450;28;20130;-66
2022/06/24 02:52:45;;;;;;;7.50;5.18;;;;;;;;;;5090351;28;20466;-66
2022/06/24 02:55:11;;;;;;;6.75;5.50;;;;;;;;;;5080957;28;20040;-67
2022/06/24 02:57:37;;;;;;;8.25;5.75;;;;;;;;;;5098847;28;20075;-66
2022/06/24 03:00:04;;;;;;;5.72;4.95;;;;;;;;;;5097226;28;20055;-67
2022/06/24 03:02:30;;;;;;;6.45;5.80;;;;;;;;;;5101605;28;20050;-66
2022/06/24 03:04:56;;;;;;;6.55;5.35;;;;;;;;;;5081645;28;20048;-66
2022/06/24 03:07:22;;;;;;;7.90;5.93;;;;;;;;;;5087772;28;20097;-67
2022/06/24 03:09:48;;;;;;;8.05;6.15;;;;;;;;;;5086315;28;20036;-66
2022/06/24 03:12:14;;;;;;;8.32;5.97;;;;;;;;;;5091125;28;20093;-67
2022/06/24 03:14:41;;;;;;;8.70;6.80;;;;;;;;;;5098624;28;20108;-67
2022/06/24 03:17:07;;;;;;;8.40;5.97;;;;;;;;;;5089694;28;20036;-67
2022/06/24 03:19:33;;;;;;;8.73;5.82;;;;;;;;;;5093201;28;20090;-66
2022/06/24 03:21:59;;;;;;;6.68;5.55;;;;;;;;;;5076433;28;20024;-66
2022/06/24 03:24:25;;;;;;;6.60;5.50;;;;;;;;;;5068513;28;20035;-66
2022/06/24 03:26:51;;;;;;;10.57;6.03;;;;;;;;;;5098574;28;20035;-67
2022/06/24 03:29:17;;;;;;;6.80;5.22;;;;;;;;;;5095984;28;20067;-66
2022/06/24 03:31:44;;;;;;;7.78;6.10;;;;;;;;;;5091065;28;20043;-66
2022/06/24 03:34:10;;;;;;;9.40;6.50;;;;;;;;;;5088896;28;20493;-66
2022/06/24 03:36:36;;;;;;;8.70;6.25;;;;;;;;;;5089071;28;20040;-66
2022/06/24 03:39:02;;;;;;;6.05;5.38;;;;;;;;;;5100093;28;20525;-67
2022/06/24 03:41:28;;;;;;;7.80;5.40;;;;;;;;;;5084481;28;20042;-66
2022/06/24 03:43:54;;;;;;;7.30;5.32;;;;;;;;;;5099457;28;20035;-66
2022/06/24 03:46:20;;;;;;;6.05;5.45;;;;;;;;;;5074072;28;20043;-67
2022/06/24 03:48:46;;;;;;;7.43;5.55;;;;;;;;;;5088372;28;20040;-66
2022/06/24 03:51:13;;;;;;;12.25;4.78;;;;;;;;;;5083475;28;20078;-67
2022/06/24 03:53:39;;;;;;;7.55;6.07;;;;;;;;;;5084111;28;20120;-66
2022/06/24 03:56:05;;;;;;;6.05;5.38;;;;;;;;;;5082626;28;20375;-67
2022/06/24 03:58:31;;;;;;;11.45;7.88;;;;;;;;;;5085264;28;20532;-66
2022/06/24 04:01:01;;;;;;;10.63;8.40;;;;;;;;;;5085248;28;20131;-66
2022/06/24 04:03:27;;;;;;;13.88;10.55;;;;;;;;;;5085276;28;20127;-67
2022/06/24 04:05:54;;;;;;;13.77;11.20;;;;;;;;;;5083553;28;20047;-66
2022/06/24 04:08:20;;;;;;;14.60;10.38;;;;;;;;;;5089473;28;20443;-67
2022/06/24 04:10:46;;;;;;;15.18;11.50;;;;;;;;;;5081852;28;20051;-66
2022/06/24 04:13:12;;;;;;;17.25;11.93;;;;;;;;;;5082304;28;20044;-66
2022/06/24 04:15:44;;;;;;;15.32;12.07;;;;;;;;;;5082827;28;20401;-66
2022/06/24 04:18:11;;;;;;;15.88;11.88;;;;;;;;;;5081951;28;20245;-67
2022/06/24 04:20:37;;;;;;;14.95;10.82;;;;;;;;;;5079257;28;20951;-67
2022/06/24 04:23:03;;;;;;;15.27;12.35;;;;;;;;;;5086815;28;20088;-66
2022/06/24 04:25:29;;;;;;;21.20;14.40;;;;;;;;;;5093897;28;20043;-67
2022/06/24 04:27:55;;;;;;;16.52;13.93;;;;;;;;;;5089649;28;20059;-66
2022/06/24 04:30:22;;;;;;;18.92;15.20;;;;;;;;;;5089049;28;20109;-67
2022/06/24 04:32:48;;;;;;;20.45;14.73;;;;;;;;;;5092590;28;20420;-66
2022/06/24 04:35:14;;;;;;;21.65;13.60;;;;;;;;;;5092729;28;20044;-67
2022/06/24 04:37:40;;;;;;;16.65;12.55;;;;;;;;;;5097015;28;20081;-66
2022/06/24 04:40:07;;;;;;;23.27;12.65;;;;;;;;;;5091347;28;20461;-66
2022/06/24 04:42:34;;;;;;;20.63;12.52;;;;;;;;;;5086542;28;20048;-66
2022/06/24 04:45:00;;;;;;;24.15;11.52;;;;;;;;;;5072293;28;20040;-67
2022/06/24 04:47:26;;;;;;;18.23;10.55;;;;;;;;;;5102866;28;20485;-67
2022/06/24 04:49:52;;;;;;;16.08;8.90;;;;;;;;;;5096209;28;20043;-66
2022/06/24 04:52:18;;;;;;;17.80;9.18;;;;;;;;;;5098274;28;20554;-67
2022/06/24 04:54:44;;;;;;;7.53;4.60;;;;;;;;;;5089581;28;20039;-66
2022/06/24 04:57:11;;;;;;;8.63;4.22;;;;;;;;;;5089357;28;20036;-66
2022/06/24 04:59:37;;;;;;;6.70;3.95;;;;;;;;;;5079389;28;20056;-67
2022/06/24 05:02:04;;;;;;;7.50;5.15;;;;;;;;;;5092374;28;20412;-67
2022/06/24 05:04:30;;;;;;;5.20;3.35;;;;;;;;;;5096048;28;20486;-66
2022/06/24 05:06:56;;;;;;;5.45;3.53;;;;;;;;;;5089073;28;20119;-67
2022/06/24 05:09:22;;;;;;;11.80;4.57;;;;;;;;;;5089368;28;20054;-66
2022/06/24 05:11:50;;;;;;;8.52;3.55;;;;;;;;;;5085909;28;20051;-67
2022/06/24 05:14:16;;;;;;;7.30;3.97;;;;;;;;;;5098843;28;20032;-66
2022/06/24 05:16:43;;;;;;;6.25;3.78;;;;;;;;;;5091924;28;20130;-67
2022/06/24 05:19:09;;;;;;;6.95;3.60;;;;;;;;;;5090191;28;20127;-67
2022/06/24 05:21:36;;;;;;;9.95;4.57;;;;;;;;;;5094033;28;20121;-67
2022/06/24 05:24:02;;;;;;;5.50;3.50;;;;;;;;;;5090430;28;20371;-67
2022/06/24 05:26:29;;;;;;;8.95;4.53;;;;;;;;;;5091692;28;20042;-67
2022/06/24 05:28:55;;;;;;;9.10;4.25;;;;;;;;;;5103216;28;20111;-67
2022/06/24 05:31:21;;;;;;;5.18;3.83;;;;;;;;;;5089581;28;20071;-67
2022/06/24 05:33:47;;;;;;;8.60;3.70;;;;;;;;;;5090519;28;20513;-67
2022/06/24 05:36:14;;;;;;;10.88;3.88;;;;;;;;;;5091049;28;20036;-67
2022/06/24 05:38:41;;;;;;;13.15;3.80;;;;;;;;;;5067411;28;20038;-66
2022/06/24 05:41:08;;;;;;;8.45;3.95;;;;;;;;;;5086711;28;20484;-67
2022/06/24 05:43:34;;;;;;;10.00;4.30;;;;;;;;;;5084684;28;20035;-67
2022/06/24 05:46:00;;;;;;;7.05;3.70;;;;;;;;;;5058393;28;20429;-67
2022/06/24 05:48:27;;;;;;;5.82;3.65;;;;;;;;;;5086304;28;20497;-67
2022/06/24 05:50:53;;;;;;;6.65;4.25;;;;;;;;;;5086240;28;20032;-67
2022/06/24 05:56:04;;;;;;;6.10;3.20;;;;;;;;;;5087051;28;20094;-67
2022/06/24 05:58:30;;;;;;;5.05;3.72;;;;;;;;;;5085639;28;20044;-67
2022/06/24 06:00:57;;;;;;;7.13;2.88;;;;;;;;;;5087149;28;20051;-67
2022/06/24 06:03:24;;;;;;;5.75;3.42;;;;;;;;;;5089141;28;20036;-67
2022/06/24 06:05:50;;;;;;;11.23;3.72;;;;;;;;;;5090442;28;20402;-67
2022/06/24 06:08:17;;;;;;;6.93;3.22;;;;;;;;;;5085795;28;20032;-66
2022/06/24 06:10:43;;;;;;;6.95;2.95;;;;;;;;;;5087503;28;20406;-66
2022/06/24 06:13:13;;;;;;;4.90;2.88;;;;;;;;;;5088862;28;20403;-67
2022/06/24 06:15:41;;;;;;;6.45;2.58;;;;;;;;;;5088523;28;20036;-66
2022/06/24 06:18:07;;;;;;;7.07;3.35;;;;;;;;;;5086896;28;20043;-67
2022/06/24 06:20:35;;;;;;;5.15;3.40;;;;;;;;;;5087112;28;20044;-67
2022/06/24 06:23:01;;;;;;;8.38;3.60;;;;;;;;;;5079434;28;20036;-67
2022/06/24 06:25:27;;;;;;;7.20;2.97;;;;;;;;;;5083069;28;20040;-67
2022/06/24 06:27:53;;;;;;;8.68;3.17;;;;;;;;;;5082009;28;20513;-67
2022/06/24 06:30:19;;;;;;;10.13;3.60;;;;;;;;;;5082990;28;20119;-67
2022/06/24 06:32:45;;;;;;;10.55;3.47;;;;;;;;;;5082358;28;20047;-67
2022/06/24 06:35:11;;;;;;;7.22;4.18;;;;;;;;;;5081893;28;20162;-67
2022/06/24 06:37:38;;;;;;;7.50;3.20;;;;;;;;;;5083272;28;20036;-66
2022/06/24 06:40:04;;;;;;;5.90;3.60;;;;;;;;;;5079390;28;20374;-67
2022/06/24 06:42:30;;;;;;;7.38;3.28;;;;;;;;;;5088482;28;20031;-67
2022/06/24 06:44:56;;;;;;;9.68;4.40;;;;;;;;;;5085544;28;20138;-66
2022/06/24 06:47:22;;;;;;;7.55;4.13;;;;;;;;;;5086515;28;20488;-67
2022/06/24 06:49:48;;;;;;;5.65;3.17;;;;;;;;;;5080240;28;20506;-67
2022/06/24 06:52:15;;;;;;;5.43;4.03;;;;;;;;;;5082479;28;20093;-67
2022/06/24 06:54:41;;;;;;;10.90;3.30;;;;;;;;;;5085500;28;20031;-67
2022/06/24 06:57:07;;;;;;;9.80;5.53;;;;;;;;;;5085577;28;20071;-67
2022/06/24 06:59:33;;;;;;;11.10;3.90;;;;;;;;;;5087884;28;20059;-67
2022/06/24 07:02:00;;;;;;;11.82;5.03;;;;;;;;;;5084244;28;20040;-67
2022/06/24 07:04:26;;;;;;;16.38;6.82;;;;;;;;;;5085980;28;20111;-68
2022/06/24 07:06:53;;;;;;;20.70;7.80;;;;;;;;;;5087040;28;20040;-67
2022/06/24 07:09:20;;;;;;;8.50;4.43;;;;;;;;;;5083622;28;20518;-67
2022/06/24 07:11:46;;;;;;;8.93;4.20;;;;;;;;;;5085347;28;20167;-67
2022/06/24 07:14:12;;;;;;;9.90;4.80;;;;;;;;;;5085945;28;20285;-67
2022/06/24 07:16:38;;;;;;;8.20;5.13;;;;;;;;;;5082178;28;20642;-67
2022/06/24 07:19:04;;;;;;;9.23;4.45;;;;;;;;;;5094790;28;20158;-67
2022/06/24 07:21:30;;;;;;;13.85;6.13;;;;;;;;;;5073097;28;20043;-67
2022/06/24 07:23:56;;;;;;;8.43;4.47;;;;;;;;;;5087879;28;20514;-67
2022/06/24 07:26:23;;;;;;;8.38;4.65;;;;;;;;;;5097026;28;20036;-67
2022/06/24 07:28:49;;;;;;;8.55;4.40;;;;;;;;;;5082382;28;20115;-67
2022/06/24 07:31:16;;;;;;;9.88;4.85;;;;;;;;;;5086345;28;20079;-67
2022/06/24 07:33:42;;;;;;;7.88;5.40;;;;;;;;;;5098222;28;20093;-67
2022/06/24 07:36:08;;;;;;;10.93;5.18;;;;;;;;;;5081332;28;20093;-67
2022/06/24 07:38:34;;;;;;;11.30;6.78;;;;;;;;;;5084622;28;20667;-67
2022/06/24 07:41:00;;;;;;;13.45;7.85;;;;;;;;;;5083658;28;20438;-67
2022/06/24 07:43:26;;;;;;;8.93;6.05;;;;;;;;;;5081334;28;20082;-67
2022/06/24 07:45:53;;;;;;;10.98;5.97;;;;;;;;;;5090024;28;20175;-67
2022/06/24 07:48:19;;;;;;;16.08;6.70;;;;;;;;;;5089016;28;20077;-67
2022/06/24 07:50:45;;;;;;;9.65;6.40;;;;;;;;;;5070199;28;20516;-66
2022/06/24 07:53:11;;;;;;;11.07;6.07;;;;;;;;;;5089609;28;20074;-67
2022/06/24 07:58:22;;;;;;;9.95;5.53;;;;;;;;;;5092474;28;20132;-67
2022/06/24 08:00:50;;;;;;;8.82;5.28;;;;;;;;;;5086875;28;20055;-67
2022/06/24 08:03:17;;;;;;;8.07;6.00;;;;;;;;;;5069853;28;20071;-67
2022/06/24 08:05:43;;;;;;;7.65;5.22;;;;;;;;;;5087213;28;20440;-67
2022/06/24 08:08:10;;;;;;;9.07;5.75;;;;;;;;;;5085977;28;20404;-66
2022/06/24 08:10:36;;;;;;;9.93;5.75;;;;;;;;;;5090980;28;20119;-67
2022/06/24 08:13:02;;;;;;;7.70;5.50;;;;;;;;;;5091295;28;20509;-67
2022/06/24 08:15:29;;;;;;;8.40;5.32;;;;;;;;;;5089948;28;20406;-67
2022/06/24 08:17:55;;;;;;;7.63;5.70;;;;;;;;;;5087899;28;20521;-67
2022/06/24 08:20:21;;;;;;;10.48;6.18;;;;;;;;;;5086081;28;20058;-67
2022/06/24 08:22:47;;;;;;;9.02;5.88;;;;;;;;;;5086909;28;20099;-66
2022/06/24 08:25:13;;;;;;;11.30;6.13;;;;;;;;;;5091607;28;20526;-67
2022/06/24 08:27:39;;;;;;;9.88;5.47;;;;;;;;;;5086891;28;20037;-67
2022/06/24 08:30:06;;;;;;;13.13;8.02;;;;;;;;;;5085872;28;20123;-67
2022/06/24 08:32:32;;;;;;;8.93;6.43;;;;;;;;;;5090670;28;20650;-67
2022/06/24 08:34:58;;;;;;;10.50;5.40;;;;;;;;;;5087326;28;20031;-67
2022/06/24 08:37:24;;;;;;;9.52;5.65;;;;;;;;;;5088619;28;20486;-67
2022/06/24 08:39:50;;;;;;;7.18;5.57;;;;;;;;;;5085394;28;20445;-67
2022/06/24 08:42:16;;;;;;;7.35;5.70;;;;;;;;;;5080494;28;20040;-66
2022/06/24 08:44:43;;;;;;;8.18;6.00;;;;;;;;;;5088464;28;20035;-67
2022/06/24 08:47:14;;;;;;;9.43;7.13;;;;;;;;;;5090820;28;20063;-67
2022/06/24 08:49:40;;;;;;;12.55;7.05;;;;;;;;;;5088158;28;20178;-66
2022/06/24 08:52:09;;;;;;;9.13;6.15;;;;;;;;;;5093568;28;20035;-67
2022/06/24 08:54:36;;;;;;;13.80;7.03;;;;;;;;;;5087111;28;20100;-67
2022/06/24 08:57:02;;;;;;;10.88;6.60;;;;;;;;;;5089827;28;20379;-67
2022/06/24 08:59:29;;;;;;;8.55;5.63;;;;;;;;;;5090246;28;20054;-67
2022/06/24 09:01:56;;;;;;;9.00;5.88;;;;;;;;;;5088529;28;20071;-67
2022/06/24 09:04:23;;;;;;;9.20;5.60;;;;;;;;;;5088670;28;20029;-67
2022/06/24 09:06:49;;;;;;;11.15;6.05;;;;;;;;;;5085228;28;20032;-67
2022/06/24 09:09:26;;;;;;;9.52;6.38;;;;;;;;;;5089866;28;20553;-66
2022/06/24 09:11:53;;;;;;;7.60;5.55;;;;;;;;;;5088195;28;20120;-66
2022/06/24 09:14:19;;;;;;;10.65;6.47;;;;;;;;;;5088217;28;20028;-67
2022/06/24 09:16:45;;;;;;;8.55;6.22;;;;;;;;;;5085863;28;20039;-66
2022/06/24 09:19:14;;;;;;;6.75;5.00;;;;;;;;;;5087547;28;20588;-66
2022/06/24 09:21:42;;;;;;;6.47;4.80;;;;;;;;;;5085746;28;20038;-66
2022/06/24 09:24:08;;;;;;;6.03;4.50;;;;;;;;;;5087119;28;20274;-67
2022/06/24 09:26:35;;;;;;;8.20;4.57;;;;;;;;;;5089220;28;20566;-67
2022/06/24 09:29:03;;;;;;;6.95;5.30;;;;;;;;;;5088947;28;20044;-67
2022/06/24 09:31:31;;;;;;;8.45;4.50;;;;;;;;;;5090849;28;20054;-66
2022/06/24 09:34:05;;;;;;;8.07;4.80;;;;;;;;;;5094238;28;20122;-66
2022/06/24 09:36:33;;;;;;;8.45;4.72;;;;;;;;;;5086783;28;20055;-66
2022/06/24 09:39:02;;;;;;;8.18;4.63;;;;;;;;;;5087532;28;20040;-66
2022/06/24 09:41:28;;;;;;;6.88;4.40;;;;;;;;;;5086631;28;20036;-66
2022/06/24 09:43:58;;;;;;;8.45;3.92;;;;;;;;;;5078278;28;20071;-66
2022/06/24 09:46:25;;;;;;;7.28;4.55;;;;;;;;;;5084960;28;20028;-67
2022/06/24 09:48:53;;;;;;;5.65;3.30;;;;;;;;;;5080753;28;20115;-66
2022/06/24 09:51:20;;;;;;;8.48;4.03;;;;;;;;;;5085301;28;20048;-66
2022/06/24 09:53:46;;;;;;;6.43;4.38;;;;;;;;;;5086281;28;20447;-66
2022/06/24 09:56:13;;;;;;;7.65;4.10;;;;;;;;;;5085502;28;20075;-66
2022/06/24 10:01:29;;;;;;;4.18;3.13;;;;;;;;;;5082516;28;20583;-66
2022/06/24 10:03:55;;;;;;;4.35;2.45;;;;;;;;;;5086937;28;20043;-66
2022/06/24 10:06:23;;;;;;;4.57;2.78;;;;;;;;;;5085897;28;20044;-66
2022/06/24 10:08:50;;;;;;;4.65;3.10;;;;;;;;;;5084840;28;20131;-66
2022/06/24 10:11:16;;;;;;;6.03;3.25;;;;;;;;;;5085569;28;20036;-66
2022/06/24 10:13:43;;;;;;;6.03;2.90;;;;;;;;;;5080271;28;20131;-66
2022/06/24 10:16:09;;;;;;;5.30;2.90;;;;;;;;;;5082675;28;20331;-66
2022/06/24 10:18:40;;;;;;;7.28;4.20;;;;;;;;;;5087251;28;20036;-66
2022/06/24 10:21:07;;;;;;;4.65;3.28;;;;;;;;;;5084919;28;20485;-66
2022/06/24 10:23:40;;;;;;;5.53;4.30;;;;;;;;;;5088513;28;20103;-66
2022/06/24 10:26:10;;;;;;;6.15;3.13;;;;;;;;;;5085941;28;20028;-66
2022/06/24 10:28:56;;;;;;;5.15;3.90;;;;;;;;;;5086463;28;20075;-66
2022/06/24 10:31:22;;;;;;;4.70;4.00;;;;;;;;;;5080000;28;20043;-66
2022/06/24 10:33:56;;;;;;;7.00;3.92;;;;;;;;;;5084648;28;20040;-66
2022/06/24 10:36:31;;;;;;;5.22;4.28;;;;;;;;;;5086169;28;20050;-66
2022/06/24 10:39:07;;;;;;;5.50;4.00;;;;;;;;;;5081716;28;20055;-66
2022/06/24 10:41:41;;;;;;;7.28;3.97;;;;;;;;;;5083846;28;20486;-66
2022/06/24 10:44:19;;;;;;;7.15;3.65;;;;;;;;;;5082711;28;20107;-66
2022/06/24 10:46:45;;;;;;;4.90;3.63;;;;;;;;;;5081898;28;20130;-67
2022/06/24 10:49:11;;;;;;;4.65;3.58;;;;;;;;;;5081889;28;20118;-67
2022/06/24 10:51:37;;;;;;;7.45;4.40;;;;;;;;;;5085922;28;20576;-66
2022/06/24 10:54:09;;;;;;;6.97;4.15;;;;;;;;;;5088147;28;20056;-66
2022/06/24 10:56:35;;;;;;;5.32;3.40;;;;;;;;;;5077991;28;20043;-66
2022/06/24 10:59:01;;;;;;;6.95;4.53;;;;;;;;;;5084793;28;20083;-66
2022/06/24 11:01:27;;;;;;;6.80;4.60;;;;;;;;;;5076517;28;20040;-66
2022/06/24 11:03:54;;;;;;;7.38;4.45;;;;;;;;;;5093348;28;20036;-66
2022/06/24 11:06:20;;;;;;;5.88;3.70;;;;;;;;;;5085843;28;20071;-65
2022/06/24 11:08:46;;;;;;;6.93;4.28;;;;;;;;;;5087272;28;20490;-66
2022/06/24 11:11:24;;;;;;;5.63;3.92;;;;;;;;;;5084806;28;20105;-66
2022/06/24 11:13:51;;;;;;;6.53;4.10;;;;;;;;;;5095187;28;20054;-66
2022/06/24 11:16:18;;;;;;;7.43;4.45;;;;;;;;;;5084203;28;20352;-67
2022/06/24 11:18:49;;;;;;;5.72;4.55;;;;;;;;;;5084765;28;20048;-66
2022/06/24 11:21:18;;;;;;;5.85;4.28;;;;;;;;;;5084907;28;20197;-66
2022/06/24 11:23:45;;;;;;;6.35;4.57;;;;;;;;;;5079686;28;20123;-67
2022/06/24 11:26:17;;;;;;;6.30;4.55;;;;;;;;;;5082128;28;20046;-67
2022/06/24 11:28:48;;;;;;;6.57;4.70;;;;;;;;;;5084218;28;20412;-67
2022/06/24 11:31:21;;;;;;;7.17;4.87;;;;;;;;;;5079038;28;21725;-66
2022/06/24 11:33:48;;;;;;;7.90;5.13;;;;;;;;;;5081687;28;20040;-67
2022/06/24 11:36:14;;;;;;;9.10;6.57;;;;;;;;;;5082622;28;20040;-67
2022/06/24 11:39:10;;;;;;;7.63;6.72;;;;;;;;;;5079665;28;20037;-66
2022/06/24 11:41:37;;;;;;;8.50;5.90;;;;;;;;;;5070345;28;20071;-66
2022/06/24 11:44:04;;;;;;;10.65;8.50;;;;;;;;;;5087174;28;20114;-66
2022/06/24 11:46:30;;;;;;;12.82;9.05;;;;;;;;;;5082576;28;20032;-66
2022/06/24 11:49:26;;;;;;;13.20;8.93;;;;;;;;;;5062711;28;20402;-66
2022/06/24 11:51:52;;;;;;;12.63;8.88;;;;;;;;;;5074513;28;20103;-67
2022/06/24 11:54:18;;;;;;;11.90;8.60;;;;;;;;;;5081198;28;20043;-67
2022/06/24 11:56:44;;;;;;;12.48;8.55;;;;;;;;;;5083330;28;20036;-67
2022/06/24 11:59:14;;;;;;;11.82;8.82;;;;;;;;;;5089995;28;20052;-66
2022/06/24 12:01:40;;;;;;;13.05;9.77;;;;;;;;;;5081534;28;20040;-67
2022/06/24 12:04:08;;;;;;;12.95;8.73;;;;;;;;;;5087047;28;20451;-66
2022/06/24 12:06:36;;;;;;;12.52;9.25;;;;;;;;;;5083345;28;20036;-67
2022/06/24 12:09:02;;;;;;;14.02;10.45;;;;;;;;;;5085293;28;20047;-66
2022/06/24 12:11:28;;;;;;;14.30;11.35;;;;;;;;;;5082199;28;20266;-66
2022/06/24 12:14:05;;;;;;;14.60;11.80;;;;;;;;;;5085693;28;20040;-67
2022/06/24 12:16:50;;;;;;;13.48;10.32;;;;;;;;;;5082814;28;20036;-67
2022/06/24 12:19:16;;;;;;;13.35;11.40;;;;;;;;;;5082854;28;20040;-67
2022/06/24 12:21:42;;;;;;;21.90;12.23;;;;;;;;;;5082473;28;20119;-67
2022/06/24 12:24:22;;;;;;;18.48;12.63;;;;;;;;;;5085169;28;20129;-67
2022/06/24 12:26:51;;;;;;;15.73;12.13;;;;;;;;;;5085697;28;20115;-67
2022/06/24 12:29:23;;;;;;;16.13;13.00;;;;;;;;;;5082174;28;20038;-67
2022/06/24 12:31:50;;;;;;;16.40;14.05;;;;;;;;;;5078697;28;20240;-67
2022/06/24 12:34:24;;;;;;;19.88;14.48;;;;;;;;;;5079926;28;20040;-68
2022/06/24 12:36:55;;;;;;;19.45;15.23;;;;;;;;;;5086942;28;20532;-67
2022/06/24 12:39:26;;;;;;;17.90;15.10;;;;;;;;;;5100706;28;20086;-67
2022/06/24 12:41:53;;;;;;;17.50;14.23;;;;;;;;;;5088326;28;20040;-67
2022/06/24 12:44:19;;;;;;;18.98;15.60;;;;;;;;;;5092754;28;20115;-68
2022/06/24 12:52:30;;;;;;;21.00;15.93;;;;;;;;;;5085135;28;20039;-67
2022/06/24 12:54:56;;;;;;;23.65;18.90;;;;;;;;;;5091604;28;20122;-67
2022/06/24 12:57:22;;;;;;;20.58;18.48;;;;;;;;;;5082702;28;20123;-67
2022/06/24 12:59:48;;;;;;;22.77;19.13;;;;;;;;;;5086485;28;20052;-67
2022/06/24 13:02:14;;;;;;;21.98;18.48;;;;;;;;;;5087903;28;20078;-67
2022/06/24 13:04:40;;;;;;;24.13;18.02;;;;;;;;;;5091020;28;20896;-67
2022/06/24 13:07:06;;;;;;;20.63;15.68;;;;;;;;;;5083211;28;20110;-67
2022/06/24 13:09:33;;;;;;;15.82;14.13;;;;;;;;;;5085422;28;20040;-67
2022/06/24 13:11:59;;;;;;;18.83;13.70;;;;;;;;;;5095001;28;20139;-67
2022/06/24 13:14:25;;;;;;;21.77;15.27;;;;;;;;;;5103063;28;20071;-67
2022/06/24 13:16:51;;;;;;;15.55;13.88;;;;;;;;;;5090409;28;20079;-67
2022/06/24 13:19:17;;;;;;;20.38;15.30;;;;;;;;;;5088901;28;20043;-67
2022/06/24 13:21:43;;;;;;;19.73;15.95;;;;;;;;;;5087130;28;20043;-68
2022/06/24 13:24:09;;;;;;;17.17;14.07;;;;;;;;;;5079857;28;20044;-68
2022/06/24 13:26:35;;;;;;;19.05;16.83;;;;;;;;;;5092300;28;20056;-67
2022/06/24 13:29:02;;;;;;;19.23;16.85;;;;;;;;;;5095210;28;20044;-67
2022/06/24 13:31:28;;;;;;;18.00;15.75;;;;;;;;;;5097977;28;20040;-67
2022/06/24 13:33:54;;;;;;;17.55;14.57;;;;;;;;;;5089017;28;20064;-67
2022/06/24 13:36:20;;;;;;;16.90;14.48;;;;;;;;;;5073410;28;20047;-67
2022/06/24 13:38:46;;;;;;;15.13;13.00;;;;;;;;;;5078316;28;20080;-67
2022/06/24 13:41:12;;;;;;;16.15;14.45;;;;;;;;;;5084983;28;20474;-67
2022/06/24 13:43:39;;;;;;;20.27;14.73;;;;;;;;;;5095520;28;20481;-68
2022/06/24 13:46:05;;;;;;;15.60;13.95;;;;;;;;;;5082066;28;20131;-67
2022/06/24 13:48:31;;;;;;;17.80;13.27;;;;;;;;;;5086498;28;20043;-67
2022/06/24 13:50:57;;;;;;;15.18;12.90;;;;;;;;;;5091446;28;20044;-67
2022/06/24 13:53:23;;;;;;;15.43;12.95;;;;;;;;;;5094267;28;20043;-67
2022/06/24 13:55:49;;;;;;;19.50;12.88;;;;;;;;;;5087917;28;20456;-68
2022/06/24 13:58:16;;;;;;;14.18;11.63;;;;;;;;;;5086966;28;20170;-68
2022/06/24 14:00:42;;;;;;;18.63;12.88;;;;;;;;;;5084644;28;20131;-67
2022/06/24 14:03:08;;;;;;;17.10;13.15;;;;;;;;;;5091475;28;20409;-67
2022/06/24 14:05:35;;;;;;;14.93;12.05;;;;;;;;;;5086652;28;20169;-67
2022/06/24 14:08:02;;;;;;;15.13;11.73;;;;;;;;;;5085268;28;20433;-67
2022/06/24 14:10:28;;;;;;;14.27;11.75;;;;;;;;;;5085158;28;20544;-64
2022/06/24 14:12:55;;;;;;;12.63;11.32;;;;;;;;;;5088015;28;20028;-64
2022/06/24 14:15:22;;;;;;;17.58;12.02;;;;;;;;;;5088406;28;20089;-64
2022/06/24 14:17:48;;;;;;;14.13;11.55;;;;;;;;;;5086739;28;20040;-62
2022/06/24 14:20:15;;;;;;;12.90;11.60;;;;;;;;;;5085365;28;20399;-62
2022/06/24 14:24:31;;;;;;;13.48;11.15;;;;;;;;;;5082465;28;20503;-62
2022/06/24 14:25:28;;;;;;;16.40;14.40;;;;;;;;;;5082896;28;20033;-62
2022/06/24 14:27:54;;;;;;;17.05;13.82;;;;;;;;;;5088317;28;20044;-63
2022/06/24 14:30:20;;;;;;;19.17;12.90;;;;;;;;;;5089553;28;20036;-63
2022/06/24 14:32:47;;;;;;;13.82;11.00;;;;;;;;;;5087552;28;20039;-62
2022/06/24 14:35:13;;;;;;;15.45;12.77;;;;;;;;;;5089690;28;20473;-62
2022/06/24 14:40:24;;;;;;;14.38;11.98;;;;;;;;;;5078156;28;20127;-62
2022/06/24 14:42:51;;;;;;;15.85;12.07;;;;;;;;;;5082773;28;20054;-61
2022/06/24 14:45:17;;;;;;;16.88;12.60;;;;;;;;;;5083433;28;20048;-61
2022/06/24 14:47:44;;;;;;;15.57;12.20;;;;;;;;;;5080472;28;20043;-62
2022/06/24 14:50:10;;;;;;;15.05;12.27;;;;;;;;;;5091665;28;20035;-62
2022/06/24 14:52:36;;;;;;;15.70;13.85;;;;;;;;;;5088028;28;20054;-62
2022/06/24 14:55:04;;;;;;;17.65;13.73;;;;;;;;;;5087057;28;20040;-62
2022/06/24 14:57:30;;;;;;;17.13;11.95;;;;;;;;;;5080335;28;20047;-63